Time;durP1;ratioP1;P1;durP2;ratioP2;P2;SDS_P1;SDS_P2;PMS_P1;PMS_P2;Temp;Humidity;BMP_temperature;BMP_pressure;BME280_temperature;BME280_humidity;BME280_pressure;Samples;Min_cycle;Max_cycle;Signal;HPM_P1;HPM_P2
2024/01/21 00:02:43;;;;;;;5.75;4.70;;;;;;;;;;5861712;28;20565;-82
2024/01/21 00:05:33;;;;;;;7.57;4.60;;;;;;;;;;5862028;28;20628;-82
2024/01/21 00:08:24;;;;;;;9.93;4.65;;;;;;;;;;5862996;28;20049;-82
2024/01/21 00:11:15;;;;;;;14.73;6.38;;;;;;;;;;5861692;28;20041;-82
2024/01/21 00:14:06;;;;;;;13.50;5.63;;;;;;;;;;5862643;28;20048;-82
2024/01/21 00:16:57;;;;;;;7.95;4.22;;;;;;;;;;5861948;28;20048;-82
2024/01/21 00:19:47;;;;;;;13.43;5.40;;;;;;;;;;5861668;28;20041;-81
2024/01/21 00:22:40;;;;;;;6.90;3.13;;;;;;;;;;5862904;28;20041;-81
2024/01/21 00:25:30;;;;;;;11.10;3.72;;;;;;;;;;5861494;28;20048;-82
2024/01/21 00:28:21;;;;;;;6.65;3.97;;;;;;;;;;5861385;28;20409;-81
2024/01/21 00:31:12;;;;;;;9.20;4.88;;;;;;;;;;5862749;28;20049;-82
2024/01/21 00:34:03;;;;;;;6.13;3.47;;;;;;;;;;5878030;28;20064;-81
2024/01/21 00:36:54;;;;;;;9.40;5.70;;;;;;;;;;5861917;28;20041;-82
2024/01/21 00:39:44;;;;;;;9.48;3.92;;;;;;;;;;5861387;28;20493;-82
2024/01/21 00:42:36;;;;;;;7.55;4.22;;;;;;;;;;5861454;28;20134;-82
2024/01/21 00:45:27;;;;;;;11.23;4.50;;;;;;;;;;5862749;28;20045;-82
2024/01/21 00:48:18;;;;;;;15.02;4.35;;;;;;;;;;5862522;28;20144;-82
2024/01/21 00:51:09;;;;;;;8.27;4.35;;;;;;;;;;5844896;28;20176;-81
2024/01/21 00:54:00;;;;;;;9.05;3.60;;;;;;;;;;5861354;28;20104;-82
2024/01/21 00:56:50;;;;;;;6.85;4.07;;;;;;;;;;5861435;28;20495;-82
2024/01/21 00:59:42;;;;;;;9.15;5.55;;;;;;;;;;5861214;28;20618;-82
2024/01/21 01:02:33;;;;;;;9.10;4.15;;;;;;;;;;5869342;28;20044;-82
2024/01/21 01:05:24;;;;;;;8.43;3.67;;;;;;;;;;5864300;28;20049;-82
2024/01/21 01:08:17;;;;;;;6.75;4.20;;;;;;;;;;5861151;28;20050;-82
2024/01/21 01:11:08;;;;;;;8.35;4.53;;;;;;;;;;5861185;28;20058;-82
2024/01/21 01:13:59;;;;;;;10.00;4.18;;;;;;;;;;5862922;28;20499;-82
2024/01/21 01:16:49;;;;;;;16.65;4.57;;;;;;;;;;5861082;28;20073;-81
2024/01/21 01:19:41;;;;;;;12.88;5.05;;;;;;;;;;5861172;28;20052;-82
2024/01/21 01:22:32;;;;;;;10.38;5.13;;;;;;;;;;5861442;28;20068;-82
2024/01/21 01:25:22;;;;;;;9.15;3.85;;;;;;;;;;5860684;28;20045;-82
2024/01/21 01:28:13;;;;;;;9.25;4.72;;;;;;;;;;5866128;28;20053;-81
2024/01/21 01:31:04;;;;;;;11.48;4.15;;;;;;;;;;5865663;28;20418;-81
2024/01/21 01:33:55;;;;;;;3.97;3.38;;;;;;;;;;5866725;28;20060;-82
2024/01/21 01:36:46;;;;;;;13.70;5.35;;;;;;;;;;5881561;28;20118;-82
2024/01/21 01:39:37;;;;;;;9.10;4.25;;;;;;;;;;5866260;28;20519;-82
2024/01/21 01:42:28;;;;;;;7.70;3.42;;;;;;;;;;5866472;28;20049;-82
2024/01/21 01:45:19;;;;;;;14.70;5.35;;;;;;;;;;5864964;28;20053;-82
2024/01/21 01:48:10;;;;;;;11.55;4.65;;;;;;;;;;5864633;28;20100;-82
2024/01/21 01:51:03;;;;;;;9.82;4.93;;;;;;;;;;5866315;28;20372;-81
2024/01/21 01:53:55;;;;;;;8.02;3.85;;;;;;;;;;5865021;28;20049;-82
2024/01/21 01:56:46;;;;;;;6.63;4.28;;;;;;;;;;5864739;28;20079;-82
2024/01/21 01:59:37;;;;;;;20.23;5.70;;;;;;;;;;5864217;28;20037;-82
2024/01/21 02:02:28;;;;;;;10.25;3.28;;;;;;;;;;5864755;28;20037;-82
2024/01/21 02:05:19;;;;;;;6.45;5.43;;;;;;;;;;5866087;28;20065;-81
2024/01/21 02:08:10;;;;;;;8.27;4.93;;;;;;;;;;5865760;28;20077;-82
2024/01/21 02:11:01;;;;;;;6.95;4.20;;;;;;;;;;5864398;28;20053;-80
2024/01/21 02:13:51;;;;;;;11.52;6.00;;;;;;;;;;5864626;28;20045;-82
2024/01/21 02:16:42;;;;;;;6.97;3.78;;;;;;;;;;5864163;28;20045;-82
2024/01/21 02:19:33;;;;;;;7.82;4.63;;;;;;;;;;5864290;28;20706;-82
2024/01/21 02:22:25;;;;;;;9.02;5.07;;;;;;;;;;5864052;28;20595;-82
2024/01/21 02:25:16;;;;;;;7.15;4.50;;;;;;;;;;5865178;28;20072;-82
2024/01/21 02:28:07;;;;;;;9.68;4.45;;;;;;;;;;5865428;28;20396;-81
2024/01/21 02:30:57;;;;;;;6.70;4.13;;;;;;;;;;5864793;28;20049;-82
2024/01/21 02:33:48;;;;;;;8.27;5.38;;;;;;;;;;5863691;28;20154;-82
2024/01/21 02:36:39;;;;;;;10.95;5.97;;;;;;;;;;5864056;28;20791;-82
2024/01/21 02:39:30;;;;;;;20.35;8.25;;;;;;;;;;5865019;28;20060;-82
2024/01/21 02:42:21;;;;;;;6.68;4.53;;;;;;;;;;5863594;28;20128;-82
2024/01/21 02:45:12;;;;;;;9.52;5.30;;;;;;;;;;5863785;28;20085;-81
2024/01/21 02:48:03;;;;;;;12.55;5.95;;;;;;;;;;5863402;28;20051;-81
2024/01/21 02:50:54;;;;;;;9.77;4.75;;;;;;;;;;5864191;28;20046;-82
2024/01/21 02:53:45;;;;;;;7.50;6.15;;;;;;;;;;5864772;28;20041;-82
2024/01/21 02:56:36;;;;;;;12.05;3.40;;;;;;;;;;5863344;28;20038;-82
2024/01/21 02:59:26;;;;;;;9.75;5.53;;;;;;;;;;5863241;28;20064;-82
2024/01/21 03:02:17;;;;;;;9.85;4.68;;;;;;;;;;5862999;28;20056;-82
2024/01/21 03:05:08;;;;;;;11.07;4.75;;;;;;;;;;5863284;28;20068;-82
2024/01/21 03:07:59;;;;;;;14.93;5.50;;;;;;;;;;5863336;28;20183;-82
2024/01/21 03:10:50;;;;;;;4.68;4.10;;;;;;;;;;5863273;28;20048;-82
2024/01/21 03:13:41;;;;;;;13.15;5.53;;;;;;;;;;5862891;28;20496;-82
2024/01/21 03:16:31;;;;;;;11.60;4.97;;;;;;;;;;5862873;28;20045;-82
2024/01/21 03:19:22;;;;;;;12.68;6.22;;;;;;;;;;5862713;28;20041;-82
2024/01/21 03:22:13;;;;;;;12.75;5.28;;;;;;;;;;5862926;28;20073;-82
2024/01/21 03:25:04;;;;;;;10.80;5.70;;;;;;;;;;5862875;28;20056;-81
2024/01/21 03:27:55;;;;;;;16.08;5.28;;;;;;;;;;5862995;28;20080;-82
2024/01/21 03:30:46;;;;;;;8.23;6.22;;;;;;;;;;5862553;28;20049;-82
2024/01/21 03:33:38;;;;;;;8.98;4.85;;;;;;;;;;5879153;28;20046;-82
2024/01/21 03:36:29;;;;;;;18.88;5.75;;;;;;;;;;5879106;28;20132;-82
2024/01/21 03:39:20;;;;;;;11.38;4.88;;;;;;;;;;5862521;28;20509;-82
2024/01/21 03:42:11;;;;;;;10.40;5.50;;;;;;;;;;5862423;28;20053;-81
2024/01/21 03:45:02;;;;;;;13.73;6.07;;;;;;;;;;5863846;28;20509;-82
2024/01/21 03:47:53;;;;;;;21.50;6.07;;;;;;;;;;5879268;28;20053;-82
2024/01/21 03:50:43;;;;;;;6.95;3.80;;;;;;;;;;5862838;28;20124;-82
2024/01/21 03:53:36;;;;;;;12.93;7.10;;;;;;;;;;5878205;28;20506;-82
2024/01/21 03:56:28;;;;;;;14.10;7.15;;;;;;;;;;5861540;28;20490;-82
2024/01/21 03:59:18;;;;;;;10.02;8.18;;;;;;;;;;5863236;28;20056;-82
2024/01/21 04:02:09;;;;;;;14.38;6.15;;;;;;;;;;5862045;28;20072;-82
2024/01/21 04:05:00;;;;;;;11.43;4.72;;;;;;;;;;5862442;28;20041;-82
2024/01/21 04:07:51;;;;;;;9.90;5.63;;;;;;;;;;5861617;28;20037;-82
2024/01/21 04:10:41;;;;;;;10.30;7.20;;;;;;;;;;5862912;28;20052;-82
2024/01/21 04:13:32;;;;;;;7.82;5.55;;;;;;;;;;5861764;28;20041;-82
2024/01/21 04:16:23;;;;;;;10.55;4.05;;;;;;;;;;5861335;28;20064;-82
2024/01/21 04:19:17;;;;;;;17.25;5.68;;;;;;;;;;5861435;28;20049;-82
2024/01/21 04:22:09;;;;;;;11.73;4.85;;;;;;;;;;5862738;28;20072;-81
2024/01/21 04:24:59;;;;;;;11.65;6.13;;;;;;;;;;5861824;28;20042;-82
2024/01/21 04:27:50;;;;;;;13.15;5.65;;;;;;;;;;5862803;28;20510;-82
2024/01/21 04:30:41;;;;;;;10.27;5.88;;;;;;;;;;5861286;28;20053;-82
2024/01/21 04:33:32;;;;;;;21.30;8.55;;;;;;;;;;5861196;28;20095;-82
2024/01/21 04:36:23;;;;;;;12.63;5.65;;;;;;;;;;5862624;28;20048;-82
2024/01/21 04:39:17;;;;;;;18.77;4.78;;;;;;;;;;5877557;28;20053;-82
2024/01/21 04:42:08;;;;;;;12.20;5.05;;;;;;;;;;5861889;28;20091;-82
2024/01/21 04:44:59;;;;;;;6.65;4.93;;;;;;;;;;5862614;28;20049;-82
2024/01/21 04:47:50;;;;;;;11.10;5.82;;;;;;;;;;5861302;28;20045;-82
2024/01/21 04:50:41;;;;;;;9.50;5.03;;;;;;;;;;5861134;28;20064;-82
2024/01/21 04:53:31;;;;;;;5.78;4.40;;;;;;;;;;5861235;28;20060;-82
2024/01/21 04:56:22;;;;;;;10.57;6.05;;;;;;;;;;5860862;28;20068;-82
2024/01/21 04:59:13;;;;;;;6.28;5.07;;;;;;;;;;5877387;28;20049;-82
2024/01/21 05:02:04;;;;;;;13.38;6.55;;;;;;;;;;5863249;28;20499;-81
2024/01/21 05:04:54;;;;;;;13.82;5.30;;;;;;;;;;5867568;28;20417;-82
2024/01/21 05:10:55;;;;;;;7.25;4.47;;;;;;;;;;5866152;28;20049;-82
2024/01/21 05:13:46;;;;;;;8.98;4.32;;;;;;;;;;5865536;28;20052;-82
2024/01/21 05:16:42;;;;;;;8.77;5.25;;;;;;;;;;5865613;28;20522;-82
2024/01/21 05:19:33;;;;;;;9.45;5.35;;;;;;;;;;5865594;28;20170;-82
2024/01/21 05:22:24;;;;;;;6.13;3.25;;;;;;;;;;5865889;28;20120;-82
2024/01/21 05:25:15;;;;;;;16.30;4.22;;;;;;;;;;5866380;28;20045;-82
2024/01/21 05:28:06;;;;;;;10.13;3.67;;;;;;;;;;5866574;28;20483;-82
2024/01/21 05:30:56;;;;;;;11.80;5.03;;;;;;;;;;5865853;28;20049;-82
2024/01/21 05:33:47;;;;;;;7.85;3.83;;;;;;;;;;5865108;28;20809;-82
2024/01/21 05:36:38;;;;;;;11.73;5.00;;;;;;;;;;5864829;28;20076;-82
2024/01/21 05:39:30;;;;;;;11.10;4.90;;;;;;;;;;5865012;28;20052;-82
2024/01/21 05:42:21;;;;;;;13.00;4.43;;;;;;;;;;5864810;28;20050;-82
2024/01/21 05:45:12;;;;;;;19.10;5.60;;;;;;;;;;5866188;28;20049;-82
2024/01/21 05:48:03;;;;;;;9.40;4.60;;;;;;;;;;5866254;28;20111;-81
2024/01/21 05:50:54;;;;;;;5.32;2.85;;;;;;;;;;5881623;28;20135;-82
2024/01/21 05:53:46;;;;;;;11.63;5.30;;;;;;;;;;5864566;28;20495;-82
2024/01/21 05:56:36;;;;;;;7.78;4.15;;;;;;;;;;5879496;28;20491;-82
2024/01/21 05:59:27;;;;;;;14.18;4.80;;;;;;;;;;5864374;28;20057;-82
2024/01/21 06:02:18;;;;;;;6.78;4.82;;;;;;;;;;5863026;28;20403;-82
2024/01/21 06:05:09;;;;;;;17.38;4.50;;;;;;;;;;5862996;28;20503;-82
2024/01/21 06:08:00;;;;;;;7.82;3.83;;;;;;;;;;5864742;28;20096;-82
2024/01/21 06:10:50;;;;;;;9.07;3.63;;;;;;;;;;5879611;28;20041;-82
2024/01/21 06:13:41;;;;;;;10.27;4.75;;;;;;;;;;5862445;28;20049;-82
2024/01/21 06:16:32;;;;;;;11.60;3.97;;;;;;;;;;5862909;28;20495;-82
2024/01/21 06:19:23;;;;;;;9.80;4.50;;;;;;;;;;5862740;28;20508;-82
2024/01/21 06:22:14;;;;;;;7.53;4.40;;;;;;;;;;5863904;28;20046;-82
2024/01/21 06:25:05;;;;;;;7.63;3.17;;;;;;;;;;5864054;28;20054;-81
2024/01/21 06:27:56;;;;;;;7.70;4.53;;;;;;;;;;5846663;28;20041;-82
2024/01/21 06:30:47;;;;;;;7.85;5.10;;;;;;;;;;5862638;28;20153;-82
2024/01/21 06:33:38;;;;;;;8.80;4.57;;;;;;;;;;5862627;28;20076;-82
2024/01/21 06:36:29;;;;;;;19.02;4.78;;;;;;;;;;5863874;28;20412;-82
2024/01/21 06:39:20;;;;;;;11.20;4.47;;;;;;;;;;5862549;28;20419;-82
2024/01/21 06:42:11;;;;;;;5.00;4.18;;;;;;;;;;5862255;28;20060;-82
2024/01/21 06:45:02;;;;;;;8.13;5.03;;;;;;;;;;5878708;28;20057;-82
2024/01/21 06:47:53;;;;;;;12.88;5.47;;;;;;;;;;5864231;28;20046;-82
2024/01/21 06:50:50;;;;;;;10.15;5.25;;;;;;;;;;5862371;28;20061;-82
2024/01/21 06:53:41;;;;;;;12.65;5.03;;;;;;;;;;5862243;28;20381;-82
2024/01/21 06:56:31;;;;;;;17.63;6.07;;;;;;;;;;5840083;28;1130729;-82
2024/01/21 06:59:22;;;;;;;18.23;4.82;;;;;;;;;;5863292;28;20046;-82
2024/01/21 07:02:13;;;;;;;8.48;4.57;;;;;;;;;;5864535;28;20045;-82
2024/01/21 07:05:04;;;;;;;8.13;3.70;;;;;;;;;;5863592;28;20116;-81
2024/01/21 07:07:56;;;;;;;9.93;6.13;;;;;;;;;;5879954;28;20049;-82
2024/01/21 07:10:47;;;;;;;9.48;4.07;;;;;;;;;;5862909;28;20041;-82
2024/01/21 07:13:38;;;;;;;8.75;4.00;;;;;;;;;;5862854;28;20061;-82
2024/01/21 07:16:29;;;;;;;16.58;3.67;;;;;;;;;;5862803;28;20045;-82
2024/01/21 07:19:20;;;;;;;12.68;5.07;;;;;;;;;;5862918;28;20430;-82
2024/01/21 07:22:11;;;;;;;16.15;4.25;;;;;;;;;;5863037;28;20518;-82
2024/01/21 07:25:02;;;;;;;11.52;3.78;;;;;;;;;;5863494;28;20056;-81
2024/01/21 07:27:55;;;;;;;8.10;4.20;;;;;;;;;;5863299;28;20091;-82
2024/01/21 07:30:46;;;;;;;9.52;4.15;;;;;;;;;;5863042;28;20137;-82
2024/01/21 07:33:37;;;;;;;7.70;4.13;;;;;;;;;;5862811;28;20055;-82
2024/01/21 07:36:28;;;;;;;9.55;4.57;;;;;;;;;;5864102;28;20041;-82
2024/01/21 07:39:19;;;;;;;5.80;3.10;;;;;;;;;;5862691;28;20144;-82
2024/01/21 07:42:11;;;;;;;5.38;4.35;;;;;;;;;;5863539;28;20053;-82
2024/01/21 07:45:02;;;;;;;7.68;4.13;;;;;;;;;;5862714;28;20474;-81
2024/01/21 07:47:53;;;;;;;6.93;4.20;;;;;;;;;;5864440;28;20051;-82
2024/01/21 07:50:44;;;;;;;5.93;3.22;;;;;;;;;;5862593;28;20045;-82
2024/01/21 07:53:35;;;;;;;10.38;3.83;;;;;;;;;;5862202;28;20048;-82
2024/01/21 07:56:26;;;;;;;14.50;3.60;;;;;;;;;;5862031;28;20045;-82
2024/01/21 07:59:17;;;;;;;12.43;5.03;;;;;;;;;;5862997;28;20056;-82
2024/01/21 08:02:08;;;;;;;7.75;4.20;;;;;;;;;;5862243;28;20126;-82
2024/01/21 08:04:59;;;;;;;13.25;5.30;;;;;;;;;;5862680;28;20049;-82
2024/01/21 08:07:50;;;;;;;5.30;4.05;;;;;;;;;;5862008;28;20513;-82
2024/01/21 08:10:41;;;;;;;10.18;4.47;;;;;;;;;;5862904;28;20045;-82
2024/01/21 08:13:32;;;;;;;10.50;4.30;;;;;;;;;;5878483;28;20499;-82
2024/01/21 08:16:22;;;;;;;6.07;3.25;;;;;;;;;;5861572;28;20485;-82
2024/01/21 08:19:15;;;;;;;5.32;3.05;;;;;;;;;;5861698;28;20049;-82
2024/01/21 08:22:08;;;;;;;9.23;3.90;;;;;;;;;;5861414;28;20056;-82
2024/01/21 08:24:59;;;;;;;8.40;4.00;;;;;;;;;;5862139;28;20564;-83
2024/01/21 08:27:50;;;;;;;12.40;6.95;;;;;;;;;;5861955;28;20099;-83
2024/01/21 08:30:41;;;;;;;9.90;6.32;;;;;;;;;;5861580;28;20057;-82
2024/01/21 08:33:35;;;;;;;9.13;4.68;;;;;;;;;;5861867;28;20038;-83
2024/01/21 08:36:26;;;;;;;10.13;4.57;;;;;;;;;;5877612;28;20052;-83
2024/01/21 08:39:17;;;;;;;5.03;1.65;;;;;;;;;;5862243;28;20132;-82
2024/01/21 08:42:08;;;;;;;15.27;4.03;;;;;;;;;;5861001;28;20197;-82
2024/01/21 08:44:58;;;;;;;3.15;2.47;;;;;;;;;;5862884;28;20048;-83
2024/01/21 08:47:49;;;;;;;6.07;3.95;;;;;;;;;;5861505;28;20041;-82
2024/01/21 08:50:40;;;;;;;7.45;3.97;;;;;;;;;;5861103;28;20037;-82
2024/01/21 08:53:31;;;;;;;14.38;4.97;;;;;;;;;;5862699;28;20522;-82
2024/01/21 08:56:26;;;;;;;4.25;3.83;;;;;;;;;;5860942;28;20045;-82
2024/01/21 08:59:16;;;;;;;7.47;5.15;;;;;;;;;;5861064;28;20057;-82
2024/01/21 09:02:07;;;;;;;9.57;5.70;;;;;;;;;;5860931;28;20056;-82
2024/01/21 09:04:58;;;;;;;12.70;10.27;;;;;;;;;;5877691;28;20050;-82
2024/01/21 09:07:49;;;;;;;10.30;6.80;;;;;;;;;;5862418;28;20041;-83
2024/01/21 09:10:43;;;;;;;21.13;9.80;;;;;;;;;;5862253;28;20044;-83
2024/01/21 09:13:34;;;;;;;13.88;7.60;;;;;;;;;;5862409;28;20041;-82
2024/01/21 09:16:25;;;;;;;8.55;7.65;;;;;;;;;;5861999;28;20050;-82
2024/01/21 09:19:15;;;;;;;13.13;4.95;;;;;;;;;;5860948;28;20144;-82
2024/01/21 09:22:06;;;;;;;6.05;3.75;;;;;;;;;;5862311;28;20059;-82
2024/01/21 09:24:58;;;;;;;4.65;4.20;;;;;;;;;;5861288;28;20052;-82
2024/01/21 09:27:50;;;;;;;6.50;5.47;;;;;;;;;;5877175;28;20392;-83
2024/01/21 09:30:41;;;;;;;10.68;5.35;;;;;;;;;;5877447;28;20454;-82
2024/01/21 09:33:32;;;;;;;3.95;3.55;;;;;;;;;;5860803;28;20176;-82
2024/01/21 09:36:23;;;;;;;13.25;5.15;;;;;;;;;;5861587;28;20046;-83
2024/01/21 09:39:14;;;;;;;10.88;5.40;;;;;;;;;;5861958;28;20049;-82
2024/01/21 09:42:09;;;;;;;6.60;4.82;;;;;;;;;;5860403;28;20085;-82
2024/01/21 09:45:02;;;;;;;7.43;4.63;;;;;;;;;;5861171;28;20046;-83
2024/01/21 09:47:54;;;;;;;6.47;3.95;;;;;;;;;;5862519;28;20033;-83
2024/01/21 09:50:46;;;;;;;8.38;4.60;;;;;;;;;;5864818;28;20045;-83
2024/01/21 09:53:37;;;;;;;13.15;3.25;;;;;;;;;;5865855;28;20048;-82
2024/01/21 09:56:28;;;;;;;5.05;4.45;;;;;;;;;;5864343;28;20049;-82
2024/01/21 09:59:19;;;;;;;13.30;5.85;;;;;;;;;;5880885;28;20053;-82
2024/01/21 10:02:17;;;;;;;5.82;4.13;;;;;;;;;;5864624;28;20403;-82
2024/01/21 10:05:09;;;;;;;6.10;4.07;;;;;;;;;;5864489;28;20061;-82
2024/01/21 10:08:00;;;;;;;7.13;4.57;;;;;;;;;;5864522;28;20045;-80
2024/01/21 10:10:51;;;;;;;4.65;3.42;;;;;;;;;;5866072;28;20052;-82
2024/01/21 10:13:44;;;;;;;6.65;3.60;;;;;;;;;;5865567;28;20587;-82
2024/01/21 10:16:43;;;;;;;5.40;4.05;;;;;;;;;;5864187;28;20683;-82
2024/01/21 10:19:34;;;;;;;3.38;3.13;;;;;;;;;;5864158;28;20041;-82
2024/01/21 10:22:25;;;;;;;10.02;4.97;;;;;;;;;;5865212;28;20049;-82
2024/01/21 10:25:16;;;;;;;10.45;4.35;;;;;;;;;;5865058;28;20060;-82
2024/01/21 10:28:09;;;;;;;10.35;4.60;;;;;;;;;;5863872;28;20495;-82
2024/01/21 10:31:00;;;;;;;5.18;2.95;;;;;;;;;;5864405;28;20045;-82
2024/01/21 10:33:51;;;;;;;9.43;6.93;;;;;;;;;;5864959;28;20180;-82
2024/01/21 10:36:44;;;;;;;9.85;8.27;;;;;;;;;;5865103;28;20077;-82
2024/01/21 10:39:37;;;;;;;5.35;4.20;;;;;;;;;;5863577;28;20052;-82
2024/01/21 10:42:29;;;;;;;12.25;4.60;;;;;;;;;;5864817;28;20045;-82
2024/01/21 10:45:24;;;;;;;16.77;8.90;;;;;;;;;;5880109;28;20419;-82
2024/01/21 10:48:16;;;;;;;17.85;11.35;;;;;;;;;;5863605;28;20045;-82
2024/01/21 10:51:09;;;;;;;9.55;5.72;;;;;;;;;;5863416;28;20122;-82
2024/01/21 10:53:59;;;;;;;7.47;3.60;;;;;;;;;;5863685;28;20057;-82
2024/01/21 10:56:51;;;;;;;8.80;7.50;;;;;;;;;;5879725;28;20053;-82
2024/01/21 10:59:42;;;;;;;10.02;5.40;;;;;;;;;;5878500;28;20041;-82
2024/01/21 11:02:33;;;;;;;5.03;4.05;;;;;;;;;;5863285;28;20053;-82
2024/01/21 11:05:24;;;;;;;6.18;4.65;;;;;;;;;;5863075;28;20049;-82
2024/01/21 11:08:23;;;;;;;24.88;12.55;;;;;;;;;;5863108;28;20061;-82
2024/01/21 11:11:17;;;;;;;15.35;6.72;;;;;;;;;;5862987;28;20076;-82
2024/01/21 11:14:35;;;;;;;8.25;3.45;;;;;;;;;;5864364;28;20412;-82
2024/01/21 11:17:26;;;;;;;11.80;7.30;;;;;;;;;;5864375;28;20120;-82
2024/01/21 11:20:24;;;;;;;22.98;13.00;;;;;;;;;;5862837;28;20053;-82
2024/01/21 11:23:16;;;;;;;24.52;17.90;;;;;;;;;;5879040;28;20049;-82
2024/01/21 11:26:18;;;;;;;42.50;19.73;;;;;;;;;;5862914;28;20072;-82
2024/01/21 11:29:29;;;;;;;33.83;21.50;;;;;;;;;;5862710;28;20396;-81
2024/01/21 11:32:25;;;;;;;9.98;4.03;;;;;;;;;;5862635;28;20048;-81
2024/01/21 11:35:18;;;;;;;11.07;4.25;;;;;;;;;;5878639;28;20127;-82
2024/01/21 11:38:08;;;;;;;6.40;4.55;;;;;;;;;;5878881;28;20062;-81
2024/01/21 11:41:03;;;;;;;6.68;5.65;;;;;;;;;;5863223;28;20049;-81
2024/01/21 11:43:54;;;;;;;15.48;3.80;;;;;;;;;;5862357;28;20041;-81
2024/01/21 11:46:45;;;;;;;4.07;3.05;;;;;;;;;;5862364;28;20064;-81
2024/01/21 11:49:36;;;;;;;6.05;4.18;;;;;;;;;;5862207;28;20507;-81
2024/01/21 11:52:27;;;;;;;6.53;3.08;;;;;;;;;;5861920;28;20055;-81
2024/01/21 11:55:21;;;;;;;12.45;5.32;;;;;;;;;;5863000;28;20079;-81
2024/01/21 11:58:14;;;;;;;5.03;3.72;;;;;;;;;;5861786;28;20049;-81
2024/01/21 12:01:04;;;;;;;7.78;4.40;;;;;;;;;;5878526;28;20600;-80
2024/01/21 12:03:56;;;;;;;6.78;4.55;;;;;;;;;;5862252;28;20060;-81
2024/01/21 12:06:49;;;;;;;7.68;4.00;;;;;;;;;;5862774;28;20049;-81
2024/01/21 12:09:40;;;;;;;5.25;3.40;;;;;;;;;;5861433;28;20124;-80
2024/01/21 12:12:31;;;;;;;50.83;23.92;;;;;;;;;;5878818;28;20049;-80
2024/01/21 12:15:22;;;;;;;24.02;13.55;;;;;;;;;;5863144;28;20128;-79
2024/01/21 12:18:13;;;;;;;18.27;6.00;;;;;;;;;;5861452;28;20064;-79
2024/01/21 12:21:04;;;;;;;7.22;6.10;;;;;;;;;;5861675;28;20048;-80
2024/01/21 12:23:57;;;;;;;6.20;3.60;;;;;;;;;;5863407;28;20458;-80
2024/01/21 12:26:48;;;;;;;12.15;7.38;;;;;;;;;;5862669;28;20038;-80
2024/01/21 12:29:39;;;;;;;4.20;3.80;;;;;;;;;;5861394;28;20052;-80
2024/01/21 12:32:30;;;;;;;9.18;8.25;;;;;;;;;;5861537;28;20037;-80
2024/01/21 12:35:22;;;;;;;36.70;24.95;;;;;;;;;;5862599;28;20132;-80
2024/01/21 12:38:14;;;;;;;11.25;6.25;;;;;;;;;;5861537;28;20146;-79
2024/01/21 12:41:04;;;;;;;56.53;33.83;;;;;;;;;;5861240;28;20056;-79
2024/01/21 12:43:55;;;;;;;36.80;13.27;;;;;;;;;;5861846;28;20400;-79
2024/01/21 12:46:47;;;;;;;42.97;22.58;;;;;;;;;;5862647;28;20037;-79
2024/01/21 12:49:37;;;;;;;6.93;4.43;;;;;;;;;;5861444;28;20058;-79
2024/01/21 12:52:28;;;;;;;2.45;2.25;;;;;;;;;;5861068;28;20135;-79
2024/01/21 12:55:19;;;;;;;4.03;2.75;;;;;;;;;;5862280;28;20050;-79
2024/01/21 12:58:12;;;;;;;9.77;4.70;;;;;;;;;;5860962;28;20049;-79
2024/01/21 13:01:04;;;;;;;2.95;2.47;;;;;;;;;;5861344;28;20056;-79
2024/01/21 13:03:55;;;;;;;4.13;3.17;;;;;;;;;;5862744;28;20045;-80
2024/01/21 13:06:46;;;;;;;6.15;2.00;;;;;;;;;;5877455;28;20061;-80
2024/01/21 13:09:37;;;;;;;5.07;3.55;;;;;;;;;;5861014;28;20041;-80
2024/01/21 13:12:28;;;;;;;2.45;1.25;;;;;;;;;;5861015;28;20115;-79
2024/01/21 13:15:20;;;;;;;5.60;3.90;;;;;;;;;;5861990;28;20045;-79
2024/01/21 13:18:14;;;;;;;3.38;2.65;;;;;;;;;;5862001;28;20052;-79
2024/01/21 13:21:07;;;;;;;4.13;2.42;;;;;;;;;;5860917;28;20410;-79
2024/01/21 13:23:58;;;;;;;3.97;3.05;;;;;;;;;;5865949;28;20136;-79
2024/01/21 13:26:52;;;;;;;3.05;2.60;;;;;;;;;;5865395;28;20124;-79
2024/01/21 13:32:52;;;;;;;6.78;4.55;;;;;;;;;;5865478;28;20048;-79
2024/01/21 13:35:46;;;;;;;3.22;2.65;;;;;;;;;;5881594;28;20076;-79
2024/01/21 13:38:37;;;;;;;4.88;3.53;;;;;;;;;;5865294;28;20518;-79
2024/01/21 13:41:28;;;;;;;7.30;3.90;;;;;;;;;;5865088;28;20041;-79
2024/01/21 13:44:19;;;;;;;11.57;4.05;;;;;;;;;;5880899;28;20091;-79
2024/01/21 13:47:10;;;;;;;6.38;3.35;;;;;;;;;;5864942;28;20042;-79
2024/01/21 13:50:00;;;;;;;11.68;4.40;;;;;;;;;;5865111;28;20046;-78
2024/01/21 13:52:51;;;;;;;6.38;4.18;;;;;;;;;;5865045;28;20134;-80
2024/01/21 13:55:44;;;;;;;3.42;2.50;;;;;;;;;;5864716;28;20073;-80
2024/01/21 13:58:35;;;;;;;5.18;2.85;;;;;;;;;;5880817;28;20050;-80
2024/01/21 14:01:26;;;;;;;14.50;9.20;;;;;;;;;;5864677;28;20653;-80
2024/01/21 14:04:17;;;;;;;9.60;5.85;;;;;;;;;;5864438;28;20075;-79
2024/01/21 14:07:08;;;;;;;10.45;4.55;;;;;;;;;;5864230;28;20049;-80
2024/01/21 14:09:58;;;;;;;9.73;4.68;;;;;;;;;;5864746;28;20057;-80
2024/01/21 14:12:50;;;;;;;7.07;6.18;;;;;;;;;;5864258;28;20179;-81
2024/01/21 14:15:43;;;;;;;12.80;9.15;;;;;;;;;;5864338;28;20098;-80
2024/01/21 14:18:34;;;;;;;20.98;10.43;;;;;;;;;;5864491;28;20042;-81
2024/01/21 14:21:27;;;;;;;13.80;7.20;;;;;;;;;;5880152;28;20041;-81
2024/01/21 14:24:22;;;;;;;9.48;6.68;;;;;;;;;;5865287;28;20050;-81
2024/01/21 14:27:13;;;;;;;8.50;5.03;;;;;;;;;;5864054;28;20053;-81
2024/01/21 14:30:06;;;;;;;11.68;5.93;;;;;;;;;;5863942;28;20076;-80
2024/01/21 14:32:57;;;;;;;16.80;9.70;;;;;;;;;;5880152;28;20492;-81
2024/01/21 14:35:48;;;;;;;7.80;5.85;;;;;;;;;;5863947;28;20045;-81
2024/01/21 14:38:39;;;;;;;10.32;6.03;;;;;;;;;;5863711;28;20045;-81
2024/01/21 14:41:30;;;;;;;13.88;7.50;;;;;;;;;;5863572;28;20125;-81
2024/01/21 14:44:21;;;;;;;23.17;14.07;;;;;;;;;;5880097;28;20107;-81
2024/01/21 14:47:11;;;;;;;18.73;9.25;;;;;;;;;;5863634;28;20045;-81
2024/01/21 14:50:03;;;;;;;9.70;6.75;;;;;;;;;;5863509;28;20152;-80
2024/01/21 14:52:54;;;;;;;14.23;5.97;;;;;;;;;;5880245;28;20049;-81
2024/01/21 14:55:45;;;;;;;10.60;5.57;;;;;;;;;;5863155;28;20132;-81
2024/01/21 14:58:36;;;;;;;8.27;5.00;;;;;;;;;;5863560;28;20468;-81
2024/01/21 15:01:29;;;;;;;5.53;2.72;;;;;;;;;;5864732;28;20045;-81
2024/01/21 15:04:20;;;;;;;7.03;2.70;;;;;;;;;;5863199;28;20045;-81
2024/01/21 15:07:11;;;;;;;7.43;3.22;;;;;;;;;;5879939;28;20050;-81
2024/01/21 15:10:02;;;;;;;4.25;3.50;;;;;;;;;;5879859;28;20052;-81
2024/01/21 15:12:53;;;;;;;4.75;3.20;;;;;;;;;;5865232;28;20053;-82
2024/01/21 15:15:44;;;;;;;7.53;3.85;;;;;;;;;;5863243;28;20045;-82
2024/01/21 15:18:35;;;;;;;13.57;5.95;;;;;;;;;;5863432;28;20041;-82
2024/01/21 15:21:26;;;;;;;5.82;4.90;;;;;;;;;;5864101;28;20045;-82
2024/01/21 15:24:18;;;;;;;33.63;16.70;;;;;;;;;;5862805;28;20077;-81
2024/01/21 15:27:08;;;;;;;36.67;15.23;;;;;;;;;;5864161;28;20056;-82
2024/01/21 15:30:00;;;;;;;36.38;14.82;;;;;;;;;;5863308;28;20521;-82
2024/01/21 15:32:51;;;;;;;28.52;9.57;;;;;;;;;;5864287;28;20132;-82
2024/01/21 15:35:41;;;;;;;33.97;14.23;;;;;;;;;;5862900;28;20132;-83
2024/01/21 15:38:32;;;;;;;33.92;12.80;;;;;;;;;;5862791;28;20148;-83
2024/01/21 15:41:23;;;;;;;25.65;13.40;;;;;;;;;;5862315;28;20146;-83
2024/01/21 15:44:17;;;;;;;24.23;11.77;;;;;;;;;;5862088;28;20056;-83
2024/01/21 15:47:08;;;;;;;22.85;9.55;;;;;;;;;;5861750;28;20054;-83
2024/01/21 15:49:58;;;;;;;36.53;11.95;;;;;;;;;;5862641;28;20053;-83
2024/01/21 15:52:49;;;;;;;37.72;12.00;;;;;;;;;;5862016;28;20053;-84
2024/01/21 15:55:40;;;;;;;26.10;10.60;;;;;;;;;;5861974;28;20037;-84
2024/01/21 15:58:31;;;;;;;16.63;8.38;;;;;;;;;;5861945;28;20049;-84
2024/01/21 16:01:21;;;;;;;18.15;7.07;;;;;;;;;;5861734;28;20496;-84
2024/01/21 16:04:13;;;;;;;18.08;9.45;;;;;;;;;;5861744;28;20533;-84
2024/01/21 16:07:04;;;;;;;26.55;9.60;;;;;;;;;;5863107;28;20041;-84
2024/01/21 16:09:54;;;;;;;24.25;10.95;;;;;;;;;;5862038;28;20049;-84
2024/01/21 16:12:47;;;;;;;41.05;16.40;;;;;;;;;;5861668;28;20128;-85
2024/01/21 16:15:38;;;;;;;98.28;30.15;;;;;;;;;;5861863;28;20503;-84
2024/01/21 16:18:40;;;;;;;84.78;28.88;;;;;;;;;;5862784;28;20559;-84
2024/01/21 16:21:32;;;;;;;40.45;14.98;;;;;;;;;;5861422;28;20079;-84
2024/01/21 16:24:22;;;;;;;48.13;21.50;;;;;;;;;;5861530;28;20052;-84
2024/01/21 16:27:14;;;;;;;33.17;15.00;;;;;;;;;;5861394;28;20045;-85
2024/01/21 16:30:20;;;;;;;45.80;15.50;;;;;;;;;;5876166;28;20502;-85
2024/01/21 16:33:13;;;;;;;25.25;10.43;;;;;;;;;;5861531;28;20053;-85
2024/01/21 16:36:04;;;;;;;14.77;7.88;;;;;;;;;;5861199;28;20049;-85
2024/01/21 16:38:55;;;;;;;8.45;5.35;;;;;;;;;;5861473;28;20049;-85
2024/01/21 16:41:48;;;;;;;12.50;4.25;;;;;;;;;;5862387;28;20042;-84
2024/01/21 16:44:39;;;;;;;15.40;5.57;;;;;;;;;;5861474;28;20041;-84
2024/01/21 16:47:30;;;;;;;22.33;11.27;;;;;;;;;;5844860;28;20037;-85
2024/01/21 16:50:21;;;;;;;13.93;10.60;;;;;;;;;;5860920;28;20123;-85
2024/01/21 16:53:30;;;;;;;26.85;11.45;;;;;;;;;;5861000;28;20053;-84
2024/01/21 16:56:21;;;;;;;;;;;;;;;;;;5862621;28;20487;-84
2024/01/21 16:59:11;;;;;;;17.70;6.95;;;;;;;;;;5865842;28;19921;-84
2024/01/21 17:02:14;;;;;;;12.70;6.47;;;;;;;;;;5866044;28;20406;-83
2024/01/21 17:05:05;;;;;;;14.98;6.80;;;;;;;;;;5881658;28;20049;-84
2024/01/21 17:07:57;;;;;;;17.15;5.93;;;;;;;;;;5866188;28;20510;-85